Main page

Airports :

Baia Mare, Romania

Baia Mare Airport

latitude: 47-40N, longitude: 023-35E, elevation: 218 m

Current weather observation

The report was made 22 minutes ago, at 21:00 UTC
Wind 2 kt from the East/Northeast
Temperature 6°C
Humidity 93%
Pressure 1021 hPa
Visibility 10 km or more

METAR: LRBM 222100Z AUTO 07002KT 9999 NCD 06/05 Q1021

Time: 00:22 (21:22 UTC)


The report was made 7 hours and 22 minutes ago, at 14:00 UTC
Forecast valid from 22 at 15 UTC to 22 at 24 UTC
Wind 4 kt from variable directions
Visibility 10 km or more
Broken clouds at a height of 1500 ft
Broken clouds at a height of 3500 ft

TAF: LRBM 221400Z 2215/2224 VRB04KT 9999 BKN015 BKN035


Weather observations and forecasts of more than 4000 airports (METAR and TAF reports).

The available stations are represented by yellow and red dots on the map.

Hover mouse over dot to see the name of the station.

Then click to see weather observations and forecasts.

To change the map : click on the green buttons with a black cross to zoom in, on the green button with a dash to zoom out, or on the green arrows for adjacent maps.